Affton, Missouri
Current Conditions -  °F | °C
As of 9:53 AM on Friday 28 Nov 2014 (Local Time) from KCPS Reporting Station
Clear Clear  
Wind Chill: 26°   Ceiling: Unl
Heat Index: 35°   Visibility: 10mi
Dew Point: 29°   Wind: 13mph
Humidity: 78%   Direction: 180°S
Pressure: 30.2"   Gusts: 21mph
Location:  38.55°N, 90.33°W
Report Text: KCPS 281553Z 18011G18KT 10SM CLR 02/M02 A3020 RMK AO2 SLP230 T00171017
Loading
Personal Weather Stations






























Interactive Weather Map New forecast layout! Learn more

10-Day Weather Forecast

Advertisements
Track Severe Weather on mobile